Aeroporto :
LOGIN :

Iscrizione | Disclaimer

   EN    FR    IT 

 










Sommario :    VFR   VFR Marginale   IFR   IFR Intensivo   IFR Molto Intensivo
Visibilità : 
Base nubi : 
>= 8 km
>= 3000ft
5 / 8 km
1000 / 3000 ft
1500m / 5 km
500 / 1000 ft
800 / 1500m
200 / 500 ft
< 800m
< 200 ft
Simboli :   Temporali  Nebbia  Neve Forte  Precipitazioni Forti  Vento > 20 kt
SIGMETs :   Varie  Temporali  Ghiacco  Turbolenza  Onda orograficha  Ceneri Vulcaniche






- Altitudine del aeroporto : 844 ft
- Codice IATA : OSR


LKMT - Ostrava-Mosnov

ULTIMO METAR :
  • 051630Z 22018KT 9999 BKN017 M01/M04 Q1023 NOSIG

METARs OBSOLETI :
  • 051600Z 22019KT 9999 BKN017 M01/M04 Q1024 NOSIG
  • 051530Z 21020KT 9999 BKN018 M01/M04 Q1023 NOSIG
  • 051500Z 21018KT 9999 BKN018 M01/M04 Q1023 NOSIG
  • 051430Z 22018KT 9999 BKN019 M01/M04 Q1023 NOSIG
  • 051400Z 22020KT 9999 BKN020 M00/M04 Q1023 NOSIG

TAF TAF LKMT
Valido dal 05 a 12 ore il 06 a 18 ore UTC


051100Z 0512/0618 22020KT CAVOK
PROB40
TEMPO 0512/0618 23022G32KT



MetMap, La meteo Aeronautica in un colpo d'occhio ! - Copyright ORBIFLY Dicembre 2007 - Disclaimer

ORBIFLY MET'MAP TEAM :

Programmazione e sviluppo : Alexandra Zaïnal
Concezione : Baudouin d'Aumeries
Aiuto per la programmazione : Marc-Olivier Méhu
Supporto tecnico e logistico : Manuel Goepfert
Aiuto per la traduzione : Arnaldo La Scala

Contatto : metmap@orbifly.com




FONTI E CREDITI :

   NOAA